Airfield :
LOGIN :

Register | Disclaimer

   EN    FR    IT 

 










Legend :    VFR   Marginal VFR   IFR   Intensive IFR   Very Intensive IFR
Visi :
Ceiling :
>= 8 km
>= 3000ft
5 to 8 km
1000 to 3000 ft
1500m to 5 km
500 to 1000 ft
800 to 1500m
200 to 500 ft
< 800m
< 200 ft
Symbols :   Thunderstorms  Fog  Heavy snow  Heavy precipitations  Wind > 20 kt
SIGMETs :     Misc.  Thunderstorms  Icing  Turbulence  Mountain Waves  Volcanic Ashes






- Airport Elevation : 364 ft
- IATA code : FRA


EDDF - Frankfurt Int.

EXPIRED METARs :
  • 090450Z AUTO 08004KT 9999 FEW010 02/00 Q1006 NOSIG
  • 091850Z AUTO 02007KT 360V060 CAVOK 02/M02 Q1005 NOSIG
  • 091820Z AUTO 02008KT CAVOK 02/M02 Q1005 NOSIG
  • 091750Z AUTO 02008KT CAVOK 02/M02 Q1005 NOSIG
  • 091720Z AUTO 02010KT CAVOK 02/M02 Q1005 NOSIG
  • 091650Z AUTO 03011KT CAVOK 02/M02 Q1005 NOSIG
  • 091620Z AUTO 02010KT CAVOK 02/M02 Q1004 NOSIG

TAF TAF EDDF
Valid from the 09 at 18:00 until the 11 at 00:00 UTC


091700Z 0918/1024 03007KT 9999 SCT045
BECMG 0918/0920 BKN045
PROB30
TEMPO 1000/1008 3000 -SN BR BKN012
PROB30
TEMPO 1008/1016 4000 -SHSN BKN012TCU



MET'MAP, your aeronautical weather chart ! - Copyright ORBIFLY December 2007 - Disclaimer

ORBIFLY MET'MAP TEAM :

Programming & Development : Alexandra Zaïnal
Original concept : Baudouin d'Aumeries
Technical & hardware support : Manuel Goepfert
Assistance : Marc-Olivier Méhu




SOURCES & CREDITS :

   NOAA